createdAt,value
2023-12-21T00:00:18.234Z,9.23
2023-12-21T00:02:45.286Z,9.24
2023-12-21T00:05:12.380Z,9.25
2023-12-21T00:07:39.881Z,9.25
2023-12-21T00:10:07.912Z,9.26
2023-12-21T00:12:35.267Z,9.26
2023-12-21T00:15:02.373Z,9.26
2023-12-21T00:17:29.565Z,9.27
2023-12-21T00:19:57.823Z,9.28
2023-12-21T00:22:25.317Z,9.29
2023-12-21T00:24:52.347Z,9.28
2023-12-21T00:27:19.612Z,9.28
2023-12-21T00:29:46.830Z,9.29
2023-12-21T00:32:14.023Z,9.29
2023-12-21T00:34:41.237Z,9.29
2023-12-21T00:37:08.392Z,9.30
2023-12-21T00:39:35.450Z,9.29
2023-12-21T00:42:02.514Z,9.30
2023-12-21T00:44:29.875Z,9.30
2023-12-21T00:46:56.964Z,9.29
2023-12-21T00:49:24.318Z,9.30
2023-12-21T00:51:51.471Z,9.31
2023-12-21T00:54:19.050Z,9.32
2023-12-21T00:56:46.087Z,9.31
2023-12-21T00:59:13.244Z,9.32
2023-12-21T01:01:40.350Z,9.30
2023-12-21T01:04:07.502Z,9.30
2023-12-21T01:06:37.384Z,9.32
2023-12-21T01:09:04.992Z,9.31
2023-12-21T01:11:32.182Z,9.34
2023-12-21T01:13:59.281Z,9.33
2023-12-21T01:16:26.671Z,9.34
2023-12-21T01:18:54.262Z,9.32
2023-12-21T01:21:21.380Z,9.33
2023-12-21T01:23:48.570Z,9.33
2023-12-21T01:26:15.695Z,9.34
2023-12-21T01:28:42.786Z,9.33
2023-12-21T01:31:10.303Z,9.34
2023-12-21T01:33:37.502Z,9.34
2023-12-21T01:36:10.369Z,9.33
2023-12-21T01:38:37.732Z,9.34
2023-12-21T01:41:05.141Z,9.36
2023-12-21T01:43:32.409Z,9.35
2023-12-21T01:46:01.592Z,9.36
2023-12-21T01:48:32.003Z,9.35
2023-12-21T01:51:00.582Z,9.36
2023-12-21T01:53:28.788Z,9.35
2023-12-21T01:55:56.525Z,9.35
2023-12-21T01:58:24.745Z,9.34
2023-12-21T02:00:53.922Z,9.35
2023-12-21T02:03:21.612Z,9.36
2023-12-21T02:05:48.697Z,9.36
2023-12-21T02:08:16.070Z,9.35
2023-12-21T02:10:44.625Z,9.37
2023-12-21T02:13:14.155Z,9.36
2023-12-21T02:15:41.883Z,9.37
2023-12-21T02:18:10.526Z,9.36
2023-12-21T02:20:40.389Z,9.38
2023-12-21T02:23:09.110Z,9.37
2023-12-21T02:25:36.873Z,9.40
2023-12-21T02:28:04.386Z,9.38
2023-12-21T02:30:31.475Z,9.40
2023-12-21T02:32:58.987Z,9.39
2023-12-21T02:35:26.089Z,9.39
2023-12-21T02:37:53.215Z,9.39
2023-12-21T02:40:20.255Z,9.39
2023-12-21T02:42:47.603Z,9.39
2023-12-21T02:45:14.846Z,9.39
2023-12-21T02:47:41.934Z,9.40
2023-12-21T02:50:09.572Z,9.39
2023-12-21T02:52:36.776Z,9.40
2023-12-21T02:55:04.832Z,9.39
2023-12-21T02:57:31.910Z,9.39
2023-12-21T02:59:59.007Z,9.40
2023-12-21T03:02:26.398Z,9.41
2023-12-21T03:04:53.660Z,9.40
2023-12-21T03:07:21.327Z,9.39
2023-12-21T03:09:48.431Z,9.41
2023-12-21T03:12:15.597Z,9.42
2023-12-21T03:14:42.739Z,9.41
2023-12-21T03:17:09.927Z,9.41
2023-12-21T03:19:37.155Z,9.43
2023-12-21T03:22:04.704Z,9.43
2023-12-21T03:24:32.541Z,9.43
2023-12-21T03:26:59.667Z,9.44
2023-12-21T03:29:26.690Z,9.43
2023-12-21T03:31:55.363Z,9.44
2023-12-21T03:34:22.689Z,9.44
2023-12-21T03:36:49.813Z,9.45
2023-12-21T03:39:17.071Z,9.45
2023-12-21T03:41:44.172Z,9.44
2023-12-21T03:44:11.191Z,9.44
2023-12-21T03:46:38.465Z,9.46
2023-12-21T03:49:06.416Z,9.45
2023-12-21T03:51:33.551Z,9.44
2023-12-21T03:54:00.604Z,9.45
2023-12-21T03:56:27.862Z,9.45
2023-12-21T03:58:54.949Z,9.45
2023-12-21T04:01:30.612Z,9.45
2023-12-21T04:03:57.921Z,9.46
2023-12-21T04:06:25.000Z,9.46
2023-12-21T04:08:55.323Z,9.45
2023-12-21T04:11:22.816Z,9.46
2023-12-21T04:13:50.566Z,9.46
2023-12-21T04:16:17.668Z,9.48
2023-12-21T04:18:45.037Z,9.49
2023-12-21T04:21:12.130Z,9.50
2023-12-21T04:23:39.261Z,9.49
2023-12-21T04:26:06.426Z,9.49
2023-12-21T04:28:34.558Z,9.49
2023-12-21T04:31:02.003Z,9.50
2023-12-21T04:33:29.252Z,9.51
2023-12-21T04:35:56.512Z,9.53
2023-12-21T04:38:23.540Z,9.53
2023-12-21T04:40:50.725Z,9.55
2023-12-21T04:43:17.901Z,9.55
2023-12-21T04:45:45.017Z,9.56
2023-12-21T04:48:12.230Z,9.57
2023-12-21T04:50:39.437Z,9.58
2023-12-21T04:53:06.575Z,9.59
2023-12-21T04:55:34.525Z,9.61
2023-12-21T04:58:01.598Z,9.61
2023-12-21T05:00:30.589Z,9.62
2023-12-21T05:02:58.376Z,9.63
2023-12-21T05:05:25.574Z,9.63
2023-12-21T05:07:54.298Z,9.63
2023-12-21T05:10:21.413Z,9.62
2023-12-21T05:12:48.810Z,9.62
2023-12-21T05:15:16.175Z,9.63
2023-12-21T05:17:43.339Z,9.63
2023-12-21T05:20:11.666Z,9.63
2023-12-21T05:22:38.821Z,9.64
2023-12-21T05:25:06.360Z,9.65
2023-12-21T05:27:33.538Z,9.66
2023-12-21T05:30:00.745Z,9.67
2023-12-21T05:32:28.147Z,9.69
2023-12-21T05:34:55.378Z,9.69
2023-12-21T05:37:22.618Z,9.70
2023-12-21T05:39:50.682Z,9.72
2023-12-21T05:42:17.738Z,9.72
2023-12-21T05:44:44.822Z,9.73
2023-12-21T05:47:12.016Z,9.73
2023-12-21T05:49:39.150Z,9.74
2023-12-21T05:52:07.064Z,9.75
2023-12-21T05:54:34.115Z,9.75
2023-12-21T05:57:02.957Z,9.74
2023-12-21T05:59:30.073Z,9.75
2023-12-21T06:01:57.328Z,9.73
2023-12-21T06:04:24.586Z,9.72
2023-12-21T06:06:51.829Z,9.72
2023-12-21T06:09:19.006Z,9.71
2023-12-21T06:11:48.554Z,9.71
2023-12-21T06:14:17.454Z,9.72
2023-12-21T06:16:44.629Z,9.72
2023-12-21T06:19:11.996Z,9.71
2023-12-21T06:21:40.076Z,9.73
2023-12-21T06:24:07.871Z,9.73
2023-12-21T06:26:41.088Z,9.73
2023-12-21T06:29:08.979Z,9.75
2023-12-21T06:31:36.530Z,9.75
2023-12-21T06:34:04.017Z,9.75
2023-12-21T06:36:32.687Z,9.75
2023-12-21T06:38:59.872Z,9.76
2023-12-21T06:41:29.610Z,9.77
2023-12-21T06:43:56.805Z,9.79
2023-12-21T06:46:23.901Z,9.81
2023-12-21T06:48:51.033Z,9.81
2023-12-21T06:51:18.172Z,9.82
2023-12-21T06:53:45.335Z,9.82
2023-12-21T06:56:24.238Z,9.83
2023-12-21T06:58:59.598Z,9.83
2023-12-21T07:01:30.344Z,9.85
2023-12-21T07:03:59.311Z,9.86
2023-12-21T07:06:26.807Z,9.86
2023-12-21T07:08:54.147Z,9.86
2023-12-21T07:11:21.341Z,9.87
2023-12-21T07:13:48.498Z,9.87
2023-12-21T07:16:15.555Z,9.87
2023-12-21T07:18:42.760Z,9.87
2023-12-21T07:21:09.997Z,9.88
2023-12-21T07:23:37.250Z,9.88
2023-12-21T07:26:04.823Z,9.91
2023-12-21T07:28:32.575Z,9.92
2023-12-21T07:31:02.801Z,9.92
2023-12-21T07:33:30.100Z,9.91
2023-12-21T07:35:57.200Z,9.94
2023-12-21T07:38:24.772Z,9.94
2023-12-21T07:40:53.171Z,9.96
2023-12-21T07:43:20.411Z,9.96
2023-12-21T07:45:47.616Z,9.97
2023-12-21T07:48:14.727Z,9.99
2023-12-21T07:50:42.034Z,9.99
2023-12-21T07:53:09.240Z,10.01
2023-12-21T07:55:36.430Z,10.03
2023-12-21T07:58:03.999Z,10.04
2023-12-21T08:00:31.165Z,10.05
2023-12-21T08:02:58.220Z,10.06
2023-12-21T08:05:25.614Z,10.08
2023-12-21T08:07:53.278Z,10.09
2023-12-21T08:10:20.410Z,10.09
2023-12-21T08:12:47.897Z,10.09
2023-12-21T08:15:15.734Z,10.11
2023-12-21T08:17:45.495Z,10.11
2023-12-21T08:20:13.879Z,10.10
2023-12-21T08:22:41.144Z,10.11
2023-12-21T08:25:11.092Z,10.14
2023-12-21T08:27:42.580Z,10.15
2023-12-21T08:30:13.767Z,10.16
2023-12-21T08:32:41.012Z,10.15
2023-12-21T08:35:09.528Z,10.15
2023-12-21T08:37:36.782Z,10.15
2023-12-21T08:40:04.660Z,10.15
2023-12-21T08:42:31.922Z,10.15
2023-12-21T08:45:03.439Z,10.14
2023-12-21T08:47:30.619Z,10.15
2023-12-21T08:50:04.570Z,10.18
2023-12-21T08:52:31.672Z,10.19
2023-12-21T08:54:58.806Z,10.18
2023-12-21T08:57:25.869Z,10.20
2023-12-21T08:59:53.357Z,10.20
2023-12-21T09:02:20.664Z,10.20
2023-12-21T09:04:49.483Z,10.21
2023-12-21T09:07:16.579Z,10.25
2023-12-21T09:09:43.772Z,10.24
2023-12-21T09:12:10.862Z,10.26
2023-12-21T09:14:37.912Z,10.26
2023-12-21T09:17:05.358Z,10.30
2023-12-21T09:19:36.123Z,10.32
2023-12-21T09:22:03.384Z,10.33
2023-12-21T09:24:30.429Z,10.34
2023-12-21T09:26:57.647Z,10.39
2023-12-21T09:29:24.827Z,10.42
2023-12-21T09:31:52.110Z,10.46
2023-12-21T09:34:19.472Z,10.50
2023-12-21T09:36:46.655Z,10.53
2023-12-21T09:39:13.801Z,10.55
2023-12-21T09:41:49.641Z,10.56
2023-12-21T09:44:29.480Z,10.56
2023-12-21T09:46:58.115Z,10.59
2023-12-21T09:49:25.405Z,10.59
2023-12-21T09:51:54.228Z,10.63
2023-12-21T09:54:23.127Z,10.65
2023-12-21T09:56:53.772Z,10.66
2023-12-21T09:59:22.620Z,10.68
2023-12-21T10:01:52.229Z,10.69
2023-12-21T10:04:20.607Z,10.71
2023-12-21T10:06:48.108Z,10.77
2023-12-21T10:09:17.145Z,10.83
2023-12-21T10:11:45.032Z,10.88
2023-12-21T10:14:22.467Z,10.96
2023-12-21T10:16:50.024Z,11.04
2023-12-21T10:19:18.250Z,11.12
2023-12-21T10:21:45.860Z,11.18
2023-12-21T10:24:13.723Z,11.21
2023-12-21T10:26:51.255Z,11.26
2023-12-21T10:29:19.183Z,11.35
2023-12-21T10:31:48.823Z,11.48
2023-12-21T10:34:17.049Z,11.57
2023-12-21T10:36:45.681Z,11.57
2023-12-21T10:39:15.615Z,11.58
2023-12-21T10:41:46.997Z,11.62
2023-12-21T10:44:19.400Z,11.63
2023-12-21T10:46:46.860Z,11.69
2023-12-21T10:49:15.037Z,11.75
2023-12-21T10:51:44.868Z,11.76
2023-12-21T10:54:14.040Z,11.74
2023-12-21T10:56:47.114Z,11.67
2023-12-21T10:59:16.092Z,11.54
2023-12-21T11:01:43.746Z,11.50
2023-12-21T11:04:12.851Z,11.45
2023-12-21T11:06:43.093Z,11.50
2023-12-21T11:09:12.590Z,11.63
2023-12-21T11:11:41.059Z,11.75
2023-12-21T11:14:08.581Z,11.84
2023-12-21T11:16:52.969Z,12.00
2023-12-21T11:19:34.182Z,12.09
2023-12-21T11:22:02.357Z,12.02
2023-12-21T11:24:29.704Z,11.95
2023-12-21T11:26:57.627Z,11.91
2023-12-21T11:29:29.338Z,11.92
2023-12-21T11:31:58.064Z,12.04
2023-12-21T11:34:41.182Z,12.09
2023-12-21T11:37:27.341Z,12.23
2023-12-21T11:40:00.950Z,12.45
2023-12-21T11:42:37.308Z,12.42
2023-12-21T11:45:09.021Z,12.33
2023-12-21T11:47:36.508Z,12.10
2023-12-21T11:50:11.946Z,12.00
2023-12-21T11:52:39.539Z,12.10
2023-12-21T11:55:07.406Z,12.30
2023-12-21T11:57:40.435Z,12.46
2023-12-21T12:00:18.157Z,12.56
2023-12-21T12:02:49.544Z,12.82
2023-12-21T12:05:25.112Z,12.81
2023-12-21T12:07:52.358Z,12.88
2023-12-21T12:10:20.144Z,13.03
2023-12-21T12:12:47.991Z,13.23
2023-12-21T12:15:16.027Z,13.38
2023-12-21T12:17:46.078Z,13.42
2023-12-21T12:20:14.401Z,13.30
2023-12-21T12:22:41.894Z,12.94
2023-12-21T12:25:10.334Z,12.63
2023-12-21T12:27:37.618Z,12.38
2023-12-21T12:30:05.366Z,12.19
2023-12-21T12:32:32.885Z,12.05
2023-12-21T12:35:00.024Z,11.90
2023-12-21T12:37:27.375Z,11.76
2023-12-21T12:39:54.600Z,11.64
2023-12-21T12:42:21.729Z,11.56
2023-12-21T12:44:52.549Z,11.50
2023-12-21T12:47:21.418Z,11.48
2023-12-21T12:49:48.820Z,11.41
2023-12-21T12:52:20.621Z,11.37
2023-12-21T12:54:48.418Z,11.40
2023-12-21T12:57:18.412Z,11.47
2023-12-21T12:59:45.817Z,11.54
2023-12-21T13:02:13.381Z,11.77
2023-12-21T13:04:40.892Z,12.01
2023-12-21T13:07:08.235Z,12.33
2023-12-21T13:09:36.323Z,12.38
2023-12-21T13:12:04.783Z,12.24
2023-12-21T13:14:32.117Z,12.09
2023-12-21T13:16:59.216Z,11.96
2023-12-21T13:19:26.890Z,11.88
2023-12-21T13:21:54.245Z,11.81
2023-12-21T13:24:21.964Z,11.76
2023-12-21T13:26:51.134Z,11.70
2023-12-21T13:29:19.632Z,11.61
2023-12-21T13:31:46.833Z,11.54
2023-12-21T13:34:14.932Z,11.53
2023-12-21T13:36:42.233Z,11.48
2023-12-21T13:39:09.328Z,11.50
2023-12-21T13:41:36.496Z,11.52
2023-12-21T13:44:10.593Z,11.48
2023-12-21T13:46:40.058Z,11.42
2023-12-21T13:49:07.978Z,11.35
2023-12-21T13:51:36.940Z,11.33
2023-12-21T13:54:04.572Z,11.44
2023-12-21T13:56:32.038Z,11.56
2023-12-21T13:58:59.176Z,11.67
2023-12-21T14:01:26.528Z,11.65
2023-12-21T14:03:56.583Z,11.60
2023-12-21T14:06:24.061Z,11.61
2023-12-21T14:08:51.161Z,11.64
2023-12-21T14:11:19.155Z,11.61
2023-12-21T14:13:46.373Z,11.63
2023-12-21T14:16:13.629Z,11.66
2023-12-21T14:18:41.176Z,11.65
2023-12-21T14:21:08.400Z,11.63
2023-12-21T14:23:35.471Z,11.60
2023-12-21T14:26:02.923Z,11.59
2023-12-21T14:28:36.325Z,11.63
2023-12-21T14:31:10.357Z,11.65
2023-12-21T14:33:37.438Z,11.63
2023-12-21T14:36:05.034Z,11.66
2023-12-21T14:38:32.150Z,11.65
2023-12-21T14:40:59.311Z,11.63
2023-12-21T14:43:26.350Z,11.64
2023-12-21T14:45:53.470Z,11.67
2023-12-21T14:48:23.913Z,11.69
2023-12-21T14:50:52.575Z,11.70
2023-12-21T14:53:19.695Z,11.70
2023-12-21T14:55:48.644Z,11.70
2023-12-21T14:58:15.930Z,11.69
2023-12-21T15:00:43.223Z,11.67
2023-12-21T15:03:10.318Z,11.64
2023-12-21T15:05:37.571Z,11.62
2023-12-21T15:08:06.576Z,11.60
2023-12-21T15:10:34.871Z,11.56
2023-12-21T15:13:03.580Z,11.56
2023-12-21T15:15:30.647Z,11.55
2023-12-21T15:17:57.869Z,11.54
2023-12-21T15:20:25.085Z,11.51
2023-12-21T15:22:53.100Z,11.48
2023-12-21T15:25:20.279Z,11.47
2023-12-21T15:27:47.668Z,11.48
2023-12-21T15:30:15.476Z,11.50
2023-12-21T15:32:42.515Z,11.50
2023-12-21T15:35:09.853Z,11.47
2023-12-21T15:37:36.927Z,11.45
2023-12-21T15:40:04.976Z,11.43
2023-12-21T15:42:32.205Z,11.41
2023-12-21T15:44:59.225Z,11.39
2023-12-21T15:47:27.095Z,11.34
2023-12-21T15:49:54.354Z,11.35
2023-12-21T15:52:21.405Z,11.31
2023-12-21T15:54:48.660Z,11.24
2023-12-21T15:57:15.916Z,11.11
2023-12-21T15:59:43.392Z,11.00
2023-12-21T16:02:10.391Z,10.91
2023-12-21T16:04:37.441Z,10.83
2023-12-21T16:07:04.725Z,10.80
2023-12-21T16:09:31.799Z,10.73
2023-12-21T16:11:58.939Z,10.70
2023-12-21T16:14:25.994Z,10.68
2023-12-21T16:16:53.138Z,10.68
2023-12-21T16:19:20.361Z,10.64
2023-12-21T16:21:50.497Z,10.62
2023-12-21T16:24:18.583Z,10.59
2023-12-21T16:26:45.743Z,10.56
2023-12-21T16:29:12.937Z,10.53
2023-12-21T16:31:39.988Z,10.52
2023-12-21T16:34:07.493Z,10.48
2023-12-21T16:36:34.649Z,10.46
2023-12-21T16:39:01.786Z,10.47
2023-12-21T16:41:28.921Z,10.47
2023-12-21T16:43:56.287Z,10.44
2023-12-21T16:46:23.620Z,10.42
2023-12-21T16:48:50.749Z,10.41
2023-12-21T16:51:17.950Z,10.41
2023-12-21T16:53:44.995Z,10.39
2023-12-21T16:56:12.751Z,10.25
2023-12-21T16:58:39.844Z,10.16
2023-12-21T17:01:08.755Z,10.10
2023-12-21T17:03:35.936Z,10.05
2023-12-21T17:06:03.084Z,10.02
2023-12-21T17:08:31.103Z,10.01
2023-12-21T17:10:58.339Z,10.04
2023-12-21T17:13:25.646Z,10.07
2023-12-21T17:15:52.885Z,10.11
2023-12-21T17:18:19.989Z,10.14
2023-12-21T17:20:47.082Z,10.16
2023-12-21T17:23:15.552Z,10.19
2023-12-21T17:25:43.115Z,10.19
2023-12-21T17:28:12.537Z,10.19
2023-12-21T17:30:40.300Z,10.21
2023-12-21T17:33:07.898Z,10.21
2023-12-21T17:35:35.114Z,10.24
2023-12-21T17:38:02.354Z,10.28
2023-12-21T17:40:29.681Z,10.32
2023-12-21T17:42:56.712Z,10.35
2023-12-21T17:45:25.534Z,10.39
2023-12-21T17:47:53.417Z,10.37
2023-12-21T17:50:20.773Z,10.41
2023-12-21T17:52:50.323Z,10.36
2023-12-21T17:55:17.960Z,10.23
2023-12-21T17:57:45.282Z,10.12
2023-12-21T18:00:13.004Z,10.04
2023-12-21T18:02:41.334Z,10.00
2023-12-21T18:05:09.042Z,9.99
2023-12-21T18:07:36.452Z,10.00
2023-12-21T18:10:04.448Z,10.00
2023-12-21T18:12:31.683Z,10.04
2023-12-21T18:14:59.399Z,10.05
2023-12-21T18:17:26.969Z,10.07
2023-12-21T18:19:54.877Z,10.09
2023-12-21T18:22:21.974Z,10.12
2023-12-21T18:24:49.651Z,10.16
2023-12-21T18:27:18.777Z,10.17
2023-12-21T18:29:45.939Z,10.15
2023-12-21T18:32:13.260Z,10.16
2023-12-21T18:34:40.350Z,10.16
2023-12-21T18:37:07.564Z,10.17
2023-12-21T18:39:34.854Z,10.19
2023-12-21T18:42:02.225Z,10.22
2023-12-21T18:44:29.522Z,10.25
2023-12-21T18:46:56.652Z,10.20
2023-12-21T18:49:23.918Z,9.93
2023-12-21T18:51:51.880Z,9.51
2023-12-21T18:54:19.065Z,9.13
2023-12-21T18:56:46.106Z,8.88
2023-12-21T18:59:13.233Z,8.70
2023-12-21T19:01:40.237Z,8.51
2023-12-21T19:04:07.378Z,8.32
2023-12-21T19:06:34.578Z,8.16
2023-12-21T19:09:01.630Z,8.01
2023-12-21T19:11:29.566Z,7.85
2023-12-21T19:13:58.166Z,7.54
2023-12-21T19:16:25.578Z,7.21
2023-12-21T19:18:52.746Z,6.92
2023-12-21T19:21:19.830Z,6.71
2023-12-21T19:23:46.955Z,6.61
2023-12-21T19:26:14.040Z,6.61
2023-12-21T19:28:41.978Z,6.63
2023-12-21T19:31:12.157Z,6.67
2023-12-21T19:33:39.482Z,6.73
2023-12-21T19:36:07.443Z,6.78
2023-12-21T19:38:34.730Z,6.85
2023-12-21T19:41:01.748Z,6.87
2023-12-21T19:43:29.309Z,6.85
2023-12-21T19:46:00.920Z,6.85
2023-12-21T19:48:28.277Z,6.77
2023-12-21T19:50:55.930Z,6.71
2023-12-21T19:53:23.772Z,6.66
2023-12-21T19:55:50.953Z,6.58
2023-12-21T19:58:19.169Z,6.55
2023-12-21T20:00:46.392Z,6.54
2023-12-21T20:03:14.722Z,6.53
2023-12-21T20:05:42.751Z,6.54
2023-12-21T20:08:10.710Z,6.52
2023-12-21T20:10:38.691Z,6.51
2023-12-21T20:13:06.303Z,6.45
2023-12-21T20:15:33.432Z,6.42
2023-12-21T20:18:00.772Z,6.41
2023-12-21T20:20:28.042Z,6.37
2023-12-21T20:22:57.475Z,6.32
2023-12-21T20:25:25.524Z,6.28
2023-12-21T20:27:54.667Z,6.24
2023-12-21T20:30:22.621Z,6.25
2023-12-21T20:32:51.808Z,6.26
2023-12-21T20:35:19.744Z,6.24
2023-12-21T20:37:48.291Z,6.24
2023-12-21T20:40:17.903Z,6.22
2023-12-21T20:42:46.737Z,6.23
2023-12-21T20:45:14.949Z,6.22
2023-12-21T20:47:44.503Z,6.21
2023-12-21T20:50:14.561Z,6.22
2023-12-21T20:52:42.090Z,6.23
2023-12-21T20:55:09.802Z,6.23
2023-12-21T20:57:37.143Z,6.20
2023-12-21T21:00:04.900Z,6.17
2023-12-21T21:02:31.917Z,6.15
2023-12-21T21:04:59.559Z,6.13
2023-12-21T21:07:26.887Z,6.11
2023-12-21T21:09:54.066Z,6.10
2023-12-21T21:12:21.067Z,6.12
2023-12-21T21:14:48.311Z,6.16
2023-12-21T21:17:15.474Z,6.20
2023-12-21T21:19:42.681Z,6.21
2023-12-21T21:22:09.926Z,6.23
2023-12-21T21:24:37.027Z,6.27
2023-12-21T21:27:04.462Z,6.31
2023-12-21T21:29:31.680Z,6.37
2023-12-21T21:31:58.825Z,6.39
2023-12-21T21:34:26.541Z,6.40
2023-12-21T21:36:53.793Z,6.41
2023-12-21T21:39:20.864Z,6.40
2023-12-21T21:41:51.434Z,6.41
2023-12-21T21:44:18.734Z,6.42
2023-12-21T21:46:45.832Z,6.43
2023-12-21T21:49:13.221Z,6.43
2023-12-21T21:51:42.693Z,6.43
2023-12-21T21:54:10.261Z,6.43
2023-12-21T21:56:40.484Z,6.46
2023-12-21T21:59:07.954Z,6.47
2023-12-21T22:01:35.148Z,6.51
2023-12-21T22:04:02.299Z,6.52
2023-12-21T22:06:29.568Z,6.53
2023-12-21T22:08:56.722Z,6.56
2023-12-21T22:11:25.076Z,6.56
2023-12-21T22:13:52.180Z,6.56
2023-12-21T22:16:19.387Z,6.54
2023-12-21T22:18:47.966Z,6.56
2023-12-21T22:21:19.071Z,6.60
2023-12-21T22:23:46.321Z,6.68
2023-12-21T22:26:21.350Z,6.75
2023-12-21T22:28:49.482Z,6.85
2023-12-21T22:31:16.990Z,6.93
2023-12-21T22:33:44.377Z,7.03
2023-12-21T22:36:12.410Z,7.18
2023-12-21T22:38:39.573Z,7.28
2023-12-21T22:41:06.845Z,7.33
2023-12-21T22:43:41.950Z,7.34
2023-12-21T22:46:10.850Z,7.39
2023-12-21T22:48:38.122Z,7.42
2023-12-21T22:51:05.477Z,7.46
2023-12-21T22:53:32.845Z,7.47
2023-12-21T22:56:00.285Z,7.52
2023-12-21T22:58:27.549Z,7.57
2023-12-21T23:00:55.470Z,7.63
2023-12-21T23:03:22.514Z,7.67
2023-12-21T23:05:49.687Z,7.72
2023-12-21T23:08:16.812Z,7.77
2023-12-21T23:10:44.912Z,7.76
2023-12-21T23:13:19.036Z,7.77
2023-12-21T23:15:46.807Z,7.78
2023-12-21T23:18:15.117Z,7.80
2023-12-21T23:20:42.549Z,7.84
2023-12-21T23:23:09.639Z,7.85
2023-12-21T23:25:36.926Z,7.90
2023-12-21T23:28:04.755Z,7.92
2023-12-21T23:30:31.908Z,7.89
2023-12-21T23:32:59.171Z,7.84
2023-12-21T23:35:27.807Z,7.76
2023-12-21T23:37:55.410Z,7.72
2023-12-21T23:40:23.174Z,7.65
2023-12-21T23:42:50.514Z,7.55
2023-12-21T23:45:17.751Z,7.47
2023-12-21T23:47:44.965Z,7.38
2023-12-21T23:50:12.182Z,7.30
2023-12-21T23:52:39.344Z,7.27
2023-12-21T23:55:07.462Z,7.26
2023-12-21T23:57:34.676Z,7.25
